الصفحة الرئيسية
METAR-TAF:

METAR-TAF

مطار :

Tocumen, بنما

دائرة عرض: 09-03N, خط طول: 079-22W, ارتفاع: 45 متر

مراقبة الطقس الحالي

تاريخ ووقت الإصدار 1ساعة و 4 دقيقة قبل الساعة 23:00UTC
ريح 4 عقدة من الغرب/الشمال الغربي
درجة الحرارة 25°درجة مئوية
الرطوبة 94%
ضغط 1007 hPa
الرؤية 10 كم أو أكثر
غيوم متفرقة على ارتفاع 900 قدم
غيوم متفرقة على ارتفاع 1600 قدم
غيوم مفككة على ارتفاع 9000 قدم

METAR: MPTO 192300Z 29004KT 9999 SCT009 SCT016 BKN090 25/24 Q1007 RWY DAMP NOSIG

زمن: 19:04 (00:04 UTC)

توقعات

تاريخ ووقت الإصدار 2ساعات و 4 دقيقة قبل الساعة 22:00UTC
التوقعات صالحة من19 الساعة 24 UTC إلى 20 الساعة 06 UTC
ريح 4 عقدة من الغرب
الرؤية 10 كم أو أكثر
غيوم متفرقة على ارتفاع 1500 قدم, مزنة ركامية.
غيوم مفككة على ارتفاع 8000 قدم
مؤقت
من 20 الساعة 04 UTC إلى 20 الساعة 08 UTC
ريح عقدة من الشمال
غيوم قليلة على ارتفاع 2000 قدم

TAF: MPTO 192200Z 1924/2006 27004KT 9999 SCT015CB BKN080 TEMPO 2004/2008 00000KT FEW020

أرصاد الطقس والتوقعات من أكثر من 4000 مطار (تقارير الطقس للمطار METAR والتنبؤ بالطقس بالمطارTAF).

المحطات المتاحة هي النقط الصفراء والحمراء على الخريطة.

حرك المؤشر فوق النقطة لمعرفة اسم المحطة.

ثم انقر لمعرفة أرصاد وتوقعات الطقس.

لتغيير الخارطة: اضغط على الأزرار الخضراء مع رمز الصليب الأسود للتكبير. على الزر الأخضر مع شرطة للتصغير، أو على الأسهم الخضراء للخرائط المجاورة.


METAR-TAF: